Time;durP1;ratioP1;P1;durP2;ratioP2;P2;SDS_P1;SDS_P2;PMS_P1;PMS_P2;Temp;Humidity;BMP_temperature;BMP_pressure;BME280_temperature;BME280_humidity;BME280_pressure;Samples;Min_cycle;Max_cycle;Signal;HPM_P1;HPM_P2
2024/02/01 00:00:01;;;;;;;23.98;13.20;;;8.00;99.90;;;;;;4979006;28;20557;-73
2024/02/01 00:02:31;;;;;;;21.80;12.90;;;8.00;99.90;;;;;;5009339;28;20069;-72
2024/02/01 00:04:58;;;;;;;24.05;13.00;;;8.00;99.90;;;;;;4975671;28;20058;-72
2024/02/01 00:07:26;;;;;;;24.60;13.45;;;8.00;99.90;;;;;;4980314;28;20038;-73
2024/02/01 00:09:54;;;;;;;24.27;14.00;;;8.00;99.90;;;;;;5008812;28;20050;-72
2024/02/01 00:12:21;;;;;;;26.60;13.30;;;7.90;99.90;;;;;;5007839;28;20034;-73
2024/02/01 00:14:48;;;;;;;22.48;12.00;;;7.90;99.90;;;;;;5009963;28;20198;-73
2024/02/01 00:17:15;;;;;;;20.33;12.27;;;7.90;99.90;;;;;;4997331;28;20054;-70
2024/02/01 00:19:43;;;;;;;21.52;11.77;;;8.00;99.90;;;;;;5013258;28;20046;-71
2024/02/01 00:22:11;;;;;;;16.65;9.93;;;8.00;99.90;;;;;;4994431;28;20061;-74
2024/02/01 00:24:53;;;;;;;14.63;9.25;;;8.10;99.90;;;;;;4991256;28;20137;-75
2024/02/01 00:27:21;;;;;;;24.60;10.60;;;8.20;99.90;;;;;;4993456;28;20174;-74
2024/02/01 00:29:48;;;;;;;13.40;8.00;;;8.30;99.90;;;;;;4980645;28;20566;-73
2024/02/01 00:32:15;;;;;;;10.52;6.47;;;8.30;99.90;;;;;;5009942;28;20048;-73
2024/02/01 00:34:44;;;;;;;9.45;5.65;;;8.50;99.90;;;;;;4994601;28;20053;-72
2024/02/01 00:37:11;;;;;;;14.63;5.75;;;8.60;99.90;;;;;;4958950;28;20048;-72
2024/02/01 00:39:38;;;;;;;11.98;6.18;;;8.80;99.90;;;;;;4990819;28;20049;-71
2024/02/01 00:42:05;;;;;;;8.30;5.00;;;8.90;99.90;;;;;;5010144;28;20490;-71
2024/02/01 00:44:33;;;;;;;10.88;5.47;;;9.00;99.90;;;;;;5009394;28;20042;-72
2024/02/01 00:47:00;;;;;;;9.05;5.85;;;9.10;99.90;;;;;;5009385;28;20065;-72
2024/02/01 00:49:28;;;;;;;12.55;5.95;;;9.10;99.90;;;;;;4993051;28;20038;-71
2024/02/01 00:51:57;;;;;;;10.50;5.75;;;9.00;99.90;;;;;;5007433;28;20093;-73
2024/02/01 00:54:24;;;;;;;10.73;5.43;;;9.10;99.90;;;;;;5012458;28;20435;-71
2024/02/01 00:56:51;;;;;;;8.45;5.50;;;9.10;99.90;;;;;;5009647;28;20076;-72
2024/02/01 00:59:19;;;;;;;11.95;6.05;;;9.10;99.90;;;;;;4981112;28;20041;-72
2024/02/01 01:01:46;;;;;;;10.00;6.13;;;9.00;99.90;;;;;;4975823;28;20155;-72
2024/02/01 01:04:15;;;;;;;9.98;5.35;;;9.00;99.90;;;;;;4990662;28;20061;-73
2024/02/01 01:06:43;;;;;;;11.57;6.82;;;9.00;99.90;;;;;;4989964;28;20057;-73
2024/02/01 01:09:10;;;;;;;10.52;6.30;;;9.00;99.90;;;;;;4990421;28;20422;-73
2024/02/01 01:11:39;;;;;;;12.00;6.00;;;9.00;99.90;;;;;;5009441;28;20026;-73
2024/02/01 01:14:07;;;;;;;9.65;5.68;;;8.90;99.90;;;;;;5006257;28;20046;-71
2024/02/01 01:16:33;;;;;;;8.25;5.60;;;8.90;99.90;;;;;;5004263;28;20482;-72
2024/02/01 01:19:00;;;;;;;9.25;5.68;;;8.90;99.90;;;;;;5008275;28;20081;-72
2024/02/01 01:21:29;;;;;;;11.25;6.07;;;8.80;99.90;;;;;;5005796;28;20474;-73
2024/02/01 01:23:56;;;;;;;9.82;5.78;;;8.90;99.90;;;;;;5009254;28;20045;-74
2024/02/01 01:26:24;;;;;;;10.82;6.13;;;8.90;99.90;;;;;;4990340;28;20034;-73
2024/02/01 01:28:52;;;;;;;10.63;5.47;;;8.90;99.90;;;;;;4988211;28;20046;-73
2024/02/01 01:31:19;;;;;;;9.60;5.38;;;8.80;99.90;;;;;;5008819;28;20032;-73
2024/02/01 01:33:47;;;;;;;10.57;5.30;;;8.70;99.90;;;;;;5008101;28;20156;-73
2024/02/01 01:36:33;;;;;;;10.82;5.78;;;8.70;99.90;;;;;;5009612;28;20069;-72
2024/02/01 01:39:01;;;;;;;7.78;5.05;;;8.70;99.90;;;;;;4994798;28;20124;-73
2024/02/01 01:41:28;;;;;;;8.07;4.82;;;8.70;99.90;;;;;;5009182;28;20098;-73
2024/02/01 01:43:55;;;;;;;8.88;5.18;;;8.70;99.90;;;;;;5008001;28;20058;-73
2024/02/01 01:46:23;;;;;;;10.27;5.57;;;8.60;99.90;;;;;;5006330;28;20187;-73
2024/02/01 01:48:50;;;;;;;14.75;5.03;;;8.70;99.90;;;;;;4988011;28;20068;-74
2024/02/01 01:51:18;;;;;;;11.68;5.03;;;8.70;99.90;;;;;;4991039;28;20054;-73
2024/02/01 01:53:46;;;;;;;9.45;5.05;;;8.60;99.90;;;;;;4973501;28;20514;-73
2024/02/01 01:56:15;;;;;;;7.03;4.05;;;8.60;99.90;;;;;;5006319;28;20071;-73
2024/02/01 01:58:45;;;;;;;7.03;4.43;;;8.60;99.90;;;;;;5008932;28;20140;-73
2024/02/01 02:01:13;;;;;;;7.13;5.00;;;8.50;99.90;;;;;;4991004;28;20061;-73
2024/02/01 02:03:42;;;;;;;9.00;4.90;;;8.50;99.90;;;;;;5005408;28;20050;-73
2024/02/01 02:06:09;;;;;;;10.43;4.68;;;8.50;99.90;;;;;;5012303;28;20038;-72
2024/02/01 02:08:37;;;;;;;6.50;4.35;;;8.50;99.90;;;;;;5013923;28;20046;-72
2024/02/01 02:11:05;;;;;;;5.95;3.95;;;8.50;99.90;;;;;;4977087;28;20169;-73
2024/02/01 02:13:32;;;;;;;7.55;4.35;;;8.50;99.90;;;;;;4994907;28;20033;-73
2024/02/01 02:15:59;;;;;;;14.05;4.25;;;8.50;99.90;;;;;;5011021;28;20046;-73
2024/02/01 02:18:26;;;;;;;7.18;3.97;;;8.50;99.90;;;;;;4978840;28;20459;-72
2024/02/01 02:20:54;;;;;;;5.82;4.07;;;8.40;99.90;;;;;;5016050;28;20046;-73
2024/02/01 02:23:21;;;;;;;6.32;4.05;;;8.40;99.90;;;;;;4995453;28;20543;-73
2024/02/01 02:25:49;;;;;;;7.03;4.07;;;8.40;99.90;;;;;;4993180;28;20037;-74
2024/02/01 02:28:16;;;;;;;7.00;4.10;;;8.40;99.90;;;;;;4994762;28;20518;-73
2024/02/01 02:30:43;;;;;;;6.80;4.13;;;8.40;99.90;;;;;;5009126;28;20490;-71
2024/02/01 02:33:10;;;;;;;6.93;4.07;;;8.30;99.90;;;;;;4997065;28;20080;-73
2024/02/01 02:35:38;;;;;;;6.57;4.03;;;8.30;99.90;;;;;;4993674;28;20041;-72
2024/02/01 02:38:05;;;;;;;6.07;3.92;;;8.30;99.90;;;;;;5011813;28;20049;-71
2024/02/01 02:40:32;;;;;;;6.07;3.85;;;8.30;99.90;;;;;;4983768;28;20434;-73
2024/02/01 02:43:01;;;;;;;5.22;3.75;;;8.30;99.90;;;;;;4975862;28;20121;-73
2024/02/01 02:45:28;;;;;;;7.63;4.32;;;8.20;99.90;;;;;;4993157;28;20502;-73
2024/02/01 02:47:55;;;;;;;6.38;4.13;;;8.30;99.90;;;;;;4993909;28;20049;-74
2024/02/01 02:50:22;;;;;;;5.60;3.85;;;8.20;99.90;;;;;;5011761;28;20125;-73
2024/02/01 02:52:49;;;;;;;6.05;4.30;;;8.20;99.90;;;;;;4992205;28;20052;-72
2024/02/01 02:55:16;;;;;;;8.27;4.95;;;8.20;99.90;;;;;;5012931;28;20513;-73
2024/02/01 02:57:44;;;;;;;6.43;4.40;;;8.10;99.90;;;;;;4994423;28;20041;-74
2024/02/01 03:00:18;;;;;;;8.02;4.00;;;8.00;99.90;;;;;;5010498;28;20050;-73
2024/02/01 03:02:50;;;;;;;6.75;4.38;;;8.00;99.90;;;;;;4992145;28;20081;-73
2024/02/01 03:05:17;;;;;;;6.10;4.20;;;8.00;99.90;;;;;;5010510;28;20046;-73
2024/02/01 03:07:45;;;;;;;9.00;4.90;;;7.90;99.90;;;;;;4975315;28;20045;-71
2024/02/01 03:10:12;;;;;;;8.40;4.75;;;7.90;99.90;;;;;;5008270;28;20037;-73
2024/02/01 03:12:40;;;;;;;7.32;3.90;;;7.90;99.90;;;;;;5013886;28;20066;-74
2024/02/01 03:15:09;;;;;;;6.60;3.97;;;7.80;99.90;;;;;;4999006;28;20037;-72
2024/02/01 03:17:37;;;;;;;6.68;4.05;;;7.90;99.90;;;;;;4997057;28;20569;-71
2024/02/01 03:20:23;;;;;;;7.47;4.20;;;7.80;99.90;;;;;;4993860;28;20046;-73
2024/02/01 03:22:56;;;;;;;7.35;4.00;;;7.80;99.90;;;;;;4991110;28;20057;-73
2024/02/01 03:25:31;;;;;;;7.00;4.20;;;7.80;99.90;;;;;;4992103;28;20426;-73
2024/02/01 03:28:00;;;;;;;6.38;4.30;;;7.80;99.90;;;;;;4990993;28;20471;-73
2024/02/01 03:30:30;;;;;;;7.63;4.28;;;7.80;99.90;;;;;;4990788;28;20065;-73
2024/02/01 03:33:19;;;;;;;6.43;3.97;;;7.80;99.90;;;;;;4988269;28;20069;-73
2024/02/01 03:35:59;;;;;;;8.98;4.32;;;7.80;99.90;;;;;;4991316;28;20565;-73
2024/02/01 03:38:26;;;;;;;7.97;4.53;;;7.90;99.90;;;;;;4972005;28;20296;-73
2024/02/01 03:40:54;;;;;;;6.53;4.38;;;7.90;99.90;;;;;;5013930;28;20050;-73
2024/02/01 03:43:20;;;;;;;7.15;4.45;;;7.90;99.90;;;;;;5009385;28;20084;-72
2024/02/01 03:45:48;;;;;;;7.72;4.90;;;7.80;99.90;;;;;;4974802;28;20438;-72
2024/02/01 03:48:17;;;;;;;6.45;3.92;;;7.90;99.90;;;;;;4974461;28;20045;-75
2024/02/01 03:50:44;;;;;;;8.30;4.53;;;7.80;99.90;;;;;;5007396;28;20525;-73
2024/02/01 03:53:12;;;;;;;8.40;4.47;;;7.80;99.90;;;;;;4991124;28;20058;-73
2024/02/01 03:55:43;;;;;;;8.90;4.75;;;7.90;99.90;;;;;;4973237;28;20046;-73
2024/02/01 03:58:10;;;;;;;7.10;5.05;;;7.90;99.90;;;;;;5001427;28;20198;-73
2024/02/01 04:00:37;;;;;;;7.72;4.63;;;7.90;99.90;;;;;;5010202;28;20066;-74
2024/02/01 04:03:04;;;;;;;7.85;4.43;;;7.90;99.90;;;;;;4990110;28;20141;-73
2024/02/01 04:05:37;;;;;;;7.55;4.50;;;7.90;99.90;;;;;;4995305;28;20553;-73
2024/02/01 04:08:06;;;;;;;7.68;4.88;;;7.90;99.90;;;;;;5014065;28;20049;-72
2024/02/01 04:10:37;;;;;;;7.80;5.03;;;7.90;99.90;;;;;;4991029;28;20040;-73
2024/02/01 04:13:06;;;;;;;6.93;5.00;;;7.90;99.90;;;;;;4976011;28;20142;-72
2024/02/01 04:15:37;;;;;;;9.13;5.00;;;7.90;99.90;;;;;;5011426;28;20286;-72
2024/02/01 04:18:05;;;;;;;9.50;4.90;;;7.90;99.90;;;;;;4990544;28;20069;-72
2024/02/01 04:20:34;;;;;;;8.20;5.03;;;7.90;99.90;;;;;;4964728;28;20069;-72
2024/02/01 04:23:02;;;;;;;7.50;4.90;;;8.00;99.90;;;;;;4991323;28;20128;-72
2024/02/01 04:25:29;;;;;;;8.75;4.85;;;7.90;99.90;;;;;;4993994;28;20048;-73
2024/02/01 04:27:56;;;;;;;9.20;4.95;;;7.90;99.90;;;;;;4973338;28;20045;-72
2024/02/01 04:30:24;;;;;;;8.18;4.50;;;7.90;99.90;;;;;;5003507;28;20405;-72
2024/02/01 04:32:51;;;;;;;8.23;5.15;;;7.90;99.90;;;;;;4988226;28;20052;-73
2024/02/01 04:35:18;;;;;;;10.48;5.00;;;7.90;99.90;;;;;;4991547;28;20040;-74
2024/02/01 04:37:52;;;;;;;8.23;4.85;;;7.90;99.90;;;;;;4987907;28;20427;-74
2024/02/01 04:40:21;;;;;;;10.07;6.00;;;7.90;99.90;;;;;;5009941;28;20438;-72
2024/02/01 04:42:51;;;;;;;11.32;5.25;;;7.80;99.90;;;;;;5002860;28;20042;-71
2024/02/01 04:45:19;;;;;;;9.95;4.93;;;7.80;99.90;;;;;;4992639;28;20482;-73
2024/02/01 04:47:46;;;;;;;8.75;5.32;;;7.90;99.90;;;;;;4988546;28;20044;-73
2024/02/01 04:50:13;;;;;;;9.57;4.65;;;8.00;99.90;;;;;;4959770;28;20479;-73
2024/02/01 04:52:41;;;;;;;8.05;5.20;;;8.00;99.90;;;;;;5006002;28;20046;-72
2024/02/01 04:55:09;;;;;;;8.82;5.07;;;7.90;99.90;;;;;;4973203;28;20502;-73
2024/02/01 04:57:38;;;;;;;7.80;4.95;;;7.90;99.90;;;;;;5009522;28;20125;-73
2024/02/01 05:00:13;;;;;;;7.85;4.90;;;7.90;99.90;;;;;;4993262;28;20046;-72
2024/02/01 05:02:41;;;;;;;9.45;5.25;;;7.80;99.90;;;;;;5007157;28;20466;-71
2024/02/01 05:05:12;;;;;;;8.38;4.72;;;7.80;99.90;;;;;;5007748;28;20057;-74
2024/02/01 05:07:39;;;;;;;7.78;5.30;;;7.80;99.90;;;;;;4990761;28;20037;-73
2024/02/01 05:10:08;;;;;;;7.00;5.38;;;7.80;99.90;;;;;;5008601;28;20042;-73
2024/02/01 05:12:36;;;;;;;9.95;5.65;;;7.70;99.90;;;;;;4989920;28;20050;-71
2024/02/01 05:15:07;;;;;;;8.93;5.10;;;7.70;99.90;;;;;;5008367;28;20077;-73
2024/02/01 05:17:52;;;;;;;8.35;5.10;;;7.60;99.90;;;;;;5007560;28;20064;-74
2024/02/01 05:20:20;;;;;;;8.20;4.85;;;7.60;99.90;;;;;;5005773;28;20277;-74
2024/02/01 05:22:46;;;;;;;10.13;6.00;;;7.60;99.90;;;;;;4972902;28;20422;-73
2024/02/01 05:25:18;;;;;;;8.05;5.38;;;7.60;99.90;;;;;;4976266;28;20482;-74
2024/02/01 05:27:51;;;;;;;9.70;5.35;;;7.60;99.90;;;;;;4988950;28;20052;-72
2024/02/01 05:30:21;;;;;;;9.52;5.65;;;7.50;99.90;;;;;;4970003;28;20034;-72
2024/02/01 05:32:53;;;;;;;10.35;5.32;;;7.40;99.90;;;;;;4990627;28;20038;-73
2024/02/01 05:35:26;;;;;;;10.93;5.70;;;7.40;99.90;;;;;;4989228;28;20037;-72
2024/02/01 05:37:54;;;;;;;9.68;5.88;;;7.30;99.90;;;;;;5007309;28;20052;-72
2024/02/01 05:40:22;;;;;;;10.63;6.05;;;7.30;99.90;;;;;;4977388;28;20146;-72
2024/02/01 05:42:49;;;;;;;9.52;5.53;;;7.30;99.90;;;;;;4990548;28;20042;-73
2024/02/01 05:45:17;;;;;;;10.57;6.00;;;7.20;99.90;;;;;;5009837;28;20069;-73
2024/02/01 05:47:45;;;;;;;12.18;6.82;;;7.30;99.90;;;;;;4992474;28;20390;-73
2024/02/01 05:50:17;;;;;;;11.40;6.53;;;7.30;99.90;;;;;;4978304;28;20447;-73
2024/02/01 05:52:43;;;;;;;10.95;6.43;;;7.30;99.90;;;;;;5011423;28;20041;-73
2024/02/01 05:55:13;;;;;;;11.88;6.60;;;7.30;99.90;;;;;;4993183;28;20050;-72
2024/02/01 05:57:41;;;;;;;10.85;6.30;;;7.30;99.90;;;;;;4975366;28;20058;-73
2024/02/01 06:00:12;;;;;;;11.02;6.50;;;7.20;99.90;;;;;;4992400;28;20132;-71
2024/02/01 06:02:39;;;;;;;10.45;6.50;;;7.20;99.90;;;;;;4994110;28;20132;-72
2024/02/01 06:05:07;;;;;;;12.13;6.47;;;7.20;99.90;;;;;;4993975;28;20209;-72
2024/02/01 06:07:34;;;;;;;9.95;6.50;;;7.30;99.90;;;;;;5012550;28;20108;-72
2024/02/01 06:10:03;;;;;;;11.52;6.47;;;7.20;99.90;;;;;;5009032;28;20066;-76
2024/02/01 06:12:30;;;;;;;12.18;6.97;;;7.10;99.90;;;;;;4978137;28;20042;-74
2024/02/01 06:15:01;;;;;;;13.55;6.57;;;7.10;99.90;;;;;;4994725;28;20136;-72
2024/02/01 06:17:30;;;;;;;13.02;6.85;;;7.10;99.90;;;;;;5013636;28;20054;-72
2024/02/01 06:19:57;;;;;;;12.55;7.03;;;7.10;99.90;;;;;;5014709;28;20045;-72
2024/02/01 06:22:25;;;;;;;11.00;6.95;;;7.10;99.90;;;;;;4995047;28;20049;-72
2024/02/01 06:24:52;;;;;;;11.93;6.80;;;7.10;99.90;;;;;;5013225;28;20066;-73
2024/02/01 06:27:19;;;;;;;12.90;6.15;;;7.00;99.90;;;;;;5012947;28;20176;-72
2024/02/01 06:29:46;;;;;;;11.45;6.32;;;7.00;99.90;;;;;;5015296;28;20077;-73
2024/02/01 06:32:19;;;;;;;10.02;6.10;;;7.00;99.90;;;;;;4994629;28;20221;-72
2024/02/01 06:34:57;;;;;;;11.27;6.75;;;7.10;99.90;;;;;;4994213;28;20034;-73
2024/02/01 06:37:28;;;;;;;12.80;6.80;;;7.00;99.90;;;;;;5010693;28;20057;-73
2024/02/01 06:43:09;;;;;;;12.75;6.75;;;6.90;99.90;;;;;;4970288;28;20609;-74
2024/02/01 06:45:44;;;;;;;12.18;6.93;;;6.90;99.90;;;;;;4973671;28;20054;-73
2024/02/01 06:48:12;;;;;;;11.52;6.72;;;6.90;99.90;;;;;;4979832;28;20110;-73
2024/02/01 06:51:10;;;;;;;16.23;7.40;;;6.90;99.90;;;;;;4983230;28;20166;-74
2024/02/01 06:53:44;;;;;;;12.57;7.65;;;6.90;99.90;;;;;;4969005;28;20116;-74
2024/02/01 06:56:28;;;;;;;11.65;6.25;;;6.90;99.90;;;;;;4965355;28;20038;-75
2024/02/01 06:59:21;;;;;;;11.27;5.95;;;6.80;99.90;;;;;;4937688;28;20101;-75
2024/02/01 07:04:41;;;;;;;11.32;6.28;;;6.80;99.90;;;;;;4979503;28;20043;-75
2024/02/01 07:07:25;;;;;;;10.55;5.90;;;6.80;99.90;;;;;;4963178;28;20129;-75
2024/02/01 07:10:08;;;;;;;12.75;5.75;;;6.90;99.90;;;;;;4952912;28;20069;-75
2024/02/01 07:13:06;;;;;;;13.43;6.20;;;6.90;99.90;;;;;;4990232;28;20568;-73
2024/02/01 07:15:35;;;;;;;8.73;5.40;;;6.90;99.90;;;;;;4987712;28;20042;-76
2024/02/01 07:18:06;;;;;;;9.85;6.35;;;6.80;99.90;;;;;;4969809;28;20542;-74
2024/02/01 07:20:35;;;;;;;9.70;5.53;;;6.80;99.90;;;;;;4988030;28;20049;-76
2024/02/01 07:23:33;;;;;;;10.48;6.53;;;6.80;99.90;;;;;;5007668;28;20065;-73
2024/02/01 07:26:16;;;;;;;10.57;6.45;;;6.90;99.90;;;;;;4975326;28;20141;-75
2024/02/01 07:59:26;;;;;;;6.35;4.00;;;7.10;99.90;;;;;;4951118;28;20460;-77
2024/02/01 08:02:13;;;;;;;6.72;3.65;;;7.20;99.90;;;;;;4950711;28;20042;-77
2024/02/01 08:07:47;;;;;;;6.82;3.38;;;7.40;99.90;;;;;;4954769;28;20085;-77
2024/02/01 08:10:18;;;;;;;6.22;3.90;;;7.50;99.90;;;;;;4955486;28;20686;-77
2024/02/01 08:12:47;;;;;;;6.88;3.55;;;7.50;99.90;;;;;;4965563;28;20570;-77
2024/02/01 08:15:42;;;;;;;7.00;3.40;;;7.60;99.90;;;;;;4959664;28;20057;-76
2024/02/01 08:18:12;;;;;;;7.43;3.15;;;7.70;99.90;;;;;;4966531;28;20061;-77
2024/02/01 08:20:41;;;;;;;5.78;3.67;;;7.70;99.90;;;;;;4978722;28;20061;-73
2024/02/01 08:23:13;;;;;;;7.25;3.65;;;7.70;99.90;;;;;;5011388;28;20105;-73
2024/02/01 08:25:41;;;;;;;5.78;3.30;;;7.50;99.90;;;;;;5012311;28;20048;-74
2024/02/01 08:28:09;;;;;;;5.78;3.65;;;7.40;99.90;;;;;;5006465;28;20062;-74
2024/02/01 08:30:36;;;;;;;4.80;3.40;;;7.40;99.90;;;;;;4993859;28;20068;-75
2024/02/01 08:33:04;;;;;;;6.68;3.30;;;7.40;99.90;;;;;;5008704;28;20518;-74
2024/02/01 08:35:36;;;;;;;6.85;3.45;;;7.40;99.90;;;;;;4977213;28;20136;-74
2024/02/01 08:38:04;;;;;;;9.80;5.18;;;7.40;99.90;;;;;;4993538;28;20096;-74
2024/02/01 08:40:32;;;;;;;7.60;3.78;;;7.30;99.90;;;;;;5011474;28;20063;-74
2024/02/01 08:43:00;;;;;;;5.78;3.20;;;7.30;99.90;;;;;;5027862;28;20061;-74
2024/02/01 08:45:28;;;;;;;5.90;3.20;;;7.20;99.90;;;;;;5027991;28;20089;-74
2024/02/01 08:48:00;;;;;;;5.35;3.38;;;7.20;99.90;;;;;;5003575;28;20696;-74
2024/02/01 08:50:33;;;;;;;5.82;3.45;;;7.10;99.90;;;;;;5026395;28;20042;-74
2024/02/01 08:53:08;;;;;;;;;;;7.20;99.90;;;;;;4995761;28;20069;-71
2024/02/01 08:55:35;;;;;;;5.10;3.28;;;7.20;99.90;;;;;;4996550;28;19929;-73
2024/02/01 08:58:08;;;;;;;6.00;3.05;;;7.20;99.90;;;;;;5009332;28;20049;-72
2024/02/01 09:00:38;;;;;;;7.35;3.47;;;7.20;99.90;;;;;;4997171;28;20615;-73
2024/02/01 09:03:10;;;;;;;6.40;3.30;;;7.20;99.90;;;;;;4994817;28;20071;-73
2024/02/01 09:05:43;;;;;;;5.78;3.47;;;7.30;99.90;;;;;;5009736;28;20049;-72
2024/02/01 09:08:13;;;;;;;4.97;3.03;;;7.20;99.90;;;;;;5010992;28;20037;-74
2024/02/01 09:10:50;;;;;;;4.35;2.85;;;7.20;99.90;;;;;;5008694;28;21187;-73
2024/02/01 09:13:20;;;;;;;7.40;2.92;;;7.30;99.90;;;;;;5026693;28;20037;-73
2024/02/01 09:15:48;;;;;;;6.10;3.10;;;7.40;99.90;;;;;;5022955;28;20049;-76
2024/02/01 09:18:15;;;;;;;4.30;2.72;;;7.40;99.90;;;;;;4994252;28;20052;-73
2024/02/01 09:20:45;;;;;;;5.68;2.47;;;7.50;99.90;;;;;;5009953;28;20294;-75
2024/02/01 09:23:12;;;;;;;5.28;2.50;;;7.50;99.90;;;;;;5003933;28;20168;-74
2024/02/01 09:25:41;;;;;;;6.15;2.60;;;7.60;99.90;;;;;;5009187;28;20045;-73
2024/02/01 09:28:12;;;;;;;5.30;3.03;;;7.60;99.90;;;;;;5026989;28;20620;-73
2024/02/01 09:30:45;;;;;;;5.22;2.90;;;7.60;99.90;;;;;;5011710;28;20033;-73
2024/02/01 09:33:18;;;;;;;3.97;2.20;;;7.60;99.90;;;;;;5009717;28;20159;-74
2024/02/01 09:35:46;;;;;;;5.50;2.50;;;7.60;99.90;;;;;;5025311;28;20091;-73
2024/02/01 09:38:14;;;;;;;3.67;2.10;;;7.70;99.90;;;;;;4991825;28;20045;-74
2024/02/01 09:41:00;;;;;;;4.80;2.42;;;7.60;99.90;;;;;;5013955;28;20052;-74
2024/02/01 09:43:49;;;;;;;3.50;2.03;;;7.70;99.90;;;;;;5014147;28;20483;-75
2024/02/01 09:46:23;;;;;;;4.07;2.08;;;7.70;99.90;;;;;;5027680;28;20037;-75
2024/02/01 09:48:52;;;;;;;3.58;2.08;;;7.60;99.90;;;;;;4990420;28;20105;-75
2024/02/01 09:51:19;;;;;;;3.20;1.90;;;7.60;99.90;;;;;;5011183;28;20041;-75
2024/02/01 09:53:48;;;;;;;4.85;2.28;;;7.60;99.90;;;;;;5010532;28;20116;-75
2024/02/01 09:56:16;;;;;;;4.82;2.40;;;7.60;99.90;;;;;;4994053;28;20498;-73
2024/02/01 09:58:44;;;;;;;4.55;1.80;;;7.60;99.90;;;;;;5013060;28;20041;-73
2024/02/01 10:01:12;;;;;;;3.63;2.10;;;7.60;99.90;;;;;;5030939;28;20084;-72
2024/02/01 10:03:44;;;;;;;5.03;2.60;;;7.60;99.90;;;;;;5010208;28;20486;-71
2024/02/01 10:06:12;;;;;;;3.80;2.45;;;7.60;99.90;;;;;;5012706;28;20069;-73
2024/02/01 10:08:40;;;;;;;4.03;2.30;;;7.60;99.90;;;;;;5009046;28;20261;-73
2024/02/01 10:11:07;;;;;;;6.68;2.30;;;7.70;99.90;;;;;;5027518;28;20057;-73
2024/02/01 10:13:37;;;;;;;4.28;2.65;;;7.80;99.90;;;;;;5013731;28;20111;-73
2024/02/01 10:16:16;;;;;;;3.60;1.92;;;7.90;99.90;;;;;;5016157;28;20052;-73
2024/02/01 10:18:52;;;;;;;3.55;2.13;;;7.90;99.90;;;;;;5009267;28;20421;-74
2024/02/01 10:21:22;;;;;;;3.70;2.10;;;7.90;99.90;;;;;;5011595;28;20068;-73
2024/02/01 10:24:04;;;;;;;3.95;2.30;;;7.90;99.90;;;;;;5010651;28;20206;-73
2024/02/01 10:26:52;;;;;;;3.75;2.13;;;7.90;99.90;;;;;;5028042;28;20127;-74
2024/02/01 10:29:20;;;;;;;3.72;1.90;;;8.00;99.90;;;;;;5016170;28;20102;-74
2024/02/01 10:31:50;;;;;;;4.03;2.10;;;8.00;99.90;;;;;;5012720;28;20045;-74
2024/02/01 10:34:20;;;;;;;3.58;1.70;;;8.10;99.90;;;;;;5028738;28;20052;-74
2024/02/01 10:36:52;;;;;;;4.05;2.10;;;8.10;99.90;;;;;;5028443;28;20382;-74
2024/02/01 10:39:25;;;;;;;3.40;2.00;;;8.00;99.90;;;;;;4997167;28;20045;-75
2024/02/01 10:41:58;;;;;;;3.67;1.92;;;7.90;99.90;;;;;;5016406;28;20494;-74
2024/02/01 10:44:32;;;;;;;3.30;1.95;;;8.00;99.90;;;;;;5030187;28;20057;-73
2024/02/01 10:47:05;;;;;;;4.28;2.33;;;8.00;99.90;;;;;;5010056;28;20050;-74
2024/02/01 10:49:37;;;;;;;4.57;1.73;;;7.90;99.90;;;;;;5030596;28;20132;-74
2024/02/01 10:52:06;;;;;;;3.80;2.15;;;7.90;99.90;;;;;;5012227;28;20038;-74
2024/02/01 10:54:35;;;;;;;3.50;2.20;;;8.10;99.90;;;;;;5012422;28;20518;-75
2024/02/01 10:57:06;;;;;;;5.65;2.90;;;8.20;99.90;;;;;;5014253;28;20144;-75
2024/02/01 10:59:35;;;;;;;5.87;2.30;;;8.40;99.90;;;;;;5014256;28;20041;-73
2024/02/01 11:02:03;;;;;;;3.75;2.10;;;8.50;99.90;;;;;;5008183;28;20053;-73
2024/02/01 11:04:35;;;;;;;2.50;1.70;;;8.70;99.90;;;;;;4996050;28;20049;-73
2024/02/01 11:07:04;;;;;;;3.50;2.40;;;8.80;99.90;;;;;;5012596;28;20046;-75
2024/02/01 11:09:31;;;;;;;4.72;2.50;;;8.90;99.90;;;;;;5014756;28;20040;-73
2024/02/01 11:12:03;;;;;;;5.30;2.15;;;9.10;99.90;;;;;;5010244;28;20124;-73
2024/02/01 11:14:32;;;;;;;5.30;2.10;;;9.30;99.90;;;;;;4999243;28;20092;-74
2024/02/01 11:17:03;;;;;;;4.35;2.00;;;9.40;99.90;;;;;;5010103;28;20053;-73
2024/02/01 11:19:32;;;;;;;;;;;9.50;99.90;;;;;;5012536;28;20084;-74
2024/02/01 11:22:27;;;;;;;2.92;1.75;;;9.70;99.90;;;;;;5013725;28;19928;-74
2024/02/01 11:25:04;;;;;;;3.63;2.00;;;9.70;99.90;;;;;;4993916;28;20072;-75
2024/02/01 11:27:36;;;;;;;3.17;1.95;;;9.60;99.90;;;;;;5013159;28;20072;-74
2024/02/01 11:30:19;;;;;;;2.72;1.88;;;9.50;99.90;;;;;;5023827;28;20141;-74
2024/02/01 11:32:47;;;;;;;3.10;1.80;;;9.30;99.90;;;;;;5011845;28;20042;-73
2024/02/01 11:35:17;;;;;;;3.28;1.70;;;9.20;99.90;;;;;;5029071;28;20056;-75
2024/02/01 11:37:44;;;;;;;3.63;1.75;;;9.00;99.90;;;;;;5009958;28;20092;-74
2024/02/01 11:40:18;;;;;;;3.08;1.70;;;8.90;99.90;;;;;;5029808;28;20555;-73
2024/02/01 11:42:46;;;;;;;5.05;1.70;;;8.80;99.90;;;;;;5028610;28;20065;-72
2024/02/01 11:45:15;;;;;;;3.67;1.98;;;8.90;99.90;;;;;;5013474;28;20033;-75
2024/02/01 11:47:43;;;;;;;3.95;1.83;;;8.90;99.90;;;;;;5012003;28;20122;-74
2024/02/01 11:50:11;;;;;;;3.47;2.15;;;8.90;99.90;;;;;;5008548;28;20155;-74
2024/02/01 11:52:43;;;;;;;3.65;2.20;;;8.80;99.90;;;;;;5029531;28;20041;-74
2024/02/01 11:55:14;;;;;;;3.75;1.85;;;8.80;99.90;;;;;;4999501;28;20075;-73
2024/02/01 11:57:47;;;;;;;4.57;2.10;;;8.70;99.90;;;;;;4997634;28;20105;-74
2024/02/01 12:00:20;;;;;;;3.17;1.92;;;8.60;99.90;;;;;;4994074;28;20061;-74
2024/02/01 12:03:08;;;;;;;4.22;2.20;;;8.70;99.90;;;;;;5011006;28;20064;-74
2024/02/01 12:05:36;;;;;;;;;;;8.70;99.90;;;;;;5012741;28;20564;-72
2024/02/01 12:08:06;;;;;;;3.65;2.05;;;8.70;99.90;;;;;;5027714;28;19983;-73
2024/02/01 12:10:34;;;;;;;8.95;2.17;;;8.80;99.90;;;;;;5006346;28;20273;-72
2024/02/01 12:13:03;;;;;;;4.85;2.28;;;8.70;99.90;;;;;;5009736;28;20049;-74
2024/02/01 12:15:30;;;;;;;3.97;2.75;;;8.70;99.90;;;;;;5026261;28;20037;-73
2024/02/01 12:17:58;;;;;;;4.47;2.55;;;8.70;99.90;;;;;;5010082;28;20077;-72
2024/02/01 12:20:29;;;;;;;3.97;2.72;;;8.60;99.90;;;;;;5026770;28;20037;-75
2024/02/01 12:22:57;;;;;;;4.22;2.50;;;8.50;99.90;;;;;;5008155;28;20049;-73
2024/02/01 12:25:24;;;;;;;6.00;2.55;;;8.50;99.90;;;;;;5029865;28;20493;-72
2024/02/01 12:27:52;;;;;;;4.13;2.60;;;8.50;99.90;;;;;;5029502;28;20038;-74
2024/02/01 12:30:25;;;;;;;4.95;2.72;;;8.50;99.90;;;;;;5011430;28;20041;-73
2024/02/01 12:33:13;;;;;;;4.22;2.33;;;8.50;99.90;;;;;;5027832;28;20104;-72
2024/02/01 12:35:43;;;;;;;3.88;2.60;;;8.50;99.90;;;;;;5033769;28;20068;-72
2024/02/01 12:38:11;;;;;;;4.05;2.60;;;8.40;99.90;;;;;;5022285;28;20539;-73
2024/02/01 12:40:38;;;;;;;4.55;2.58;;;8.40;99.90;;;;;;5021307;28;20736;-73
2024/02/01 12:43:06;;;;;;;3.40;2.25;;;8.40;99.90;;;;;;5031273;28;20041;-73
2024/02/01 12:45:34;;;;;;;4.60;2.45;;;8.40;99.90;;;;;;5025820;28;20050;-74
2024/02/01 12:48:02;;;;;;;4.07;2.40;;;8.40;99.90;;;;;;5009312;28;20049;-72
2024/02/01 12:50:37;;;;;;;5.03;2.75;;;8.50;99.90;;;;;;5006514;28;20080;-73
2024/02/01 12:53:04;;;;;;;3.95;2.88;;;8.50;99.90;;;;;;5009019;28;20056;-74
2024/02/01 12:55:31;;;;;;;4.53;2.90;;;8.50;99.90;;;;;;5011932;28;20497;-72
2024/02/01 12:58:00;;;;;;;5.93;3.00;;;8.50;99.90;;;;;;5027452;28;20716;-73
2024/02/01 13:00:30;;;;;;;4.00;2.83;;;8.50;99.90;;;;;;5010312;28;20096;-73
2024/02/01 13:02:59;;;;;;;5.28;3.00;;;8.40;99.90;;;;;;5009908;28;20178;-72
2024/02/01 13:05:27;;;;;;;5.57;3.30;;;8.40;99.90;;;;;;5010347;28;20136;-70
2024/02/01 13:07:54;;;;;;;6.53;2.85;;;8.40;99.90;;;;;;5001795;28;20045;-73
2024/02/01 13:10:21;;;;;;;6.15;3.10;;;8.40;99.90;;;;;;4990606;28;20429;-73
2024/02/01 13:12:54;;;;;;;6.82;3.35;;;8.40;99.90;;;;;;5034885;28;20042;-72
2024/02/01 13:15:24;;;;;;;9.02;4.95;;;8.50;99.90;;;;;;5017699;28;20045;-72
2024/02/01 13:17:52;;;;;;;5.18;3.10;;;8.50;99.90;;;;;;5027425;28;20132;-73
2024/02/01 13:20:19;;;;;;;4.70;3.08;;;8.70;99.90;;;;;;5024172;28;20556;-75
2024/02/01 13:22:52;;;;;;;6.93;3.70;;;8.70;99.90;;;;;;5028268;28;20045;-72
2024/02/01 13:25:20;;;;;;;8.57;5.18;;;8.90;99.90;;;;;;5026541;28;20217;-73
2024/02/01 13:27:49;;;;;;;5.22;3.22;;;9.10;99.90;;;;;;4994386;28;20049;-73
2024/02/01 13:30:19;;;;;;;5.25;3.35;;;9.10;99.90;;;;;;5028421;28;20033;-74
2024/02/01 13:32:49;;;;;;;4.57;2.83;;;9.10;99.90;;;;;;5010712;28;20441;-73
2024/02/01 13:35:18;;;;;;;5.65;3.20;;;9.20;99.90;;;;;;5024724;28;20042;-74
2024/02/01 13:38:09;;;;;;;5.88;3.50;;;9.30;99.90;;;;;;5009000;28;20045;-74
2024/02/01 13:40:41;;;;;;;5.03;3.38;;;9.40;99.90;;;;;;5010919;28;20052;-74
2024/02/01 13:43:08;;;;;;;4.93;3.13;;;9.30;99.90;;;;;;5012063;28;20055;-73
2024/02/01 13:45:55;;;;;;;4.95;3.10;;;9.10;99.90;;;;;;5028855;28;20064;-74
2024/02/01 13:48:24;;;;;;;6.82;3.55;;;9.20;99.90;;;;;;5027187;28;20060;-74
2024/02/01 13:50:53;;;;;;;6.05;3.65;;;9.20;99.90;;;;;;4994922;28;20454;-73